Time;durP1;ratioP1;P1;durP2;ratioP2;P2;SDS_P1;SDS_P2;PMS_P1;PMS_P2;Temp;Humidity;BMP_temperature;BMP_pressure;BME280_temperature;BME280_humidity;BME280_pressure;Samples;Min_cycle;Max_cycle;Signal;HPM_P1;HPM_P2
2021/09/18 00:00:21;;;;;;;;;;;;;;;21.91;51.36;102290.75;2092199;28;1036;-63
2021/09/18 00:01:21;;;;;;;;;;;;;;;21.85;51.95;102293.56;2091946;28;839;-63
2021/09/18 00:02:21;;;;;;;;;;;;;;;21.97;50.20;102300.53;2092248;28;886;-63
2021/09/18 00:03:21;;;;;;;;;;;;;;;21.95;51.14;102290.72;2091899;28;795;-63
2021/09/18 00:04:22;;;;;;;;;;;;;;;21.89;52.36;102303.38;2091969;28;803;-63
2021/09/18 00:05:22;;;;;;;;;;;;;;;21.89;50.60;102302.47;2092075;28;965;-63
2021/09/18 00:06:22;;;;;;;;;;;;;;;21.87;51.18;102297.13;2092061;28;842;-63
2021/09/18 00:07:23;;;;;;;;;;;;;;;21.97;49.71;102300.53;2092226;28;827;-64
2021/09/18 00:08:23;;;;;;;;;;;;;;;21.94;50.46;102297.03;2092193;28;822;-63
2021/09/18 00:09:23;;;;;;;;;;;;;;;21.94;50.75;102300.59;2092207;28;847;-63
2021/09/18 00:10:23;;;;;;;;;;;;;;;21.99;50.18;102300.53;2092262;28;755;-63
2021/09/18 00:11:24;;;;;;;;;;;;;;;21.89;51.94;102299.78;2083268;28;816;-64
2021/09/18 00:12:24;;;;;;;;;;;;;;;21.86;52.51;102302.53;2083483;28;734;-63
2021/09/18 00:13:24;;;;;;;;;;;;;;;21.90;51.29;102299.78;2091989;28;835;-63
2021/09/18 00:14:24;;;;;;;;;;;;;;;21.97;50.83;102305.94;2092081;28;759;-63
2021/09/18 00:15:24;;;;;;;;;;;;;;;21.95;51.72;102296.09;2092110;28;965;-63
2021/09/18 00:16:25;;;;;;;;;;;;;;;21.96;50.98;102298.75;2092066;28;831;-64
2021/09/18 00:17:26;;;;;;;;;;;;;;;21.90;51.62;102297.06;2092119;28;973;-63
2021/09/18 00:18:26;;;;;;;;;;;;;;;21.91;51.67;102297.94;2092094;28;1979;-63
2021/09/18 00:19:26;;;;;;;;;;;;;;;21.90;51.52;102298.88;2092746;28;1067;-64
2021/09/18 00:20:26;;;;;;;;;;;;;;;21.93;50.93;102290.72;2093461;28;997;-64
2021/09/18 00:21:26;;;;;;;;;;;;;;;21.93;51.15;102293.41;2092023;28;805;-63
2021/09/18 00:22:27;;;;;;;;;;;;;;;21.91;52.03;102292.56;2091699;28;968;-63
2021/09/18 00:23:27;;;;;;;;;;;;;;;21.94;52.50;102289.81;2087140;28;1272;-63
2021/09/18 00:24:27;;;;;;;;;;;;;;;21.96;50.79;102292.50;2083846;28;771;-64
2021/09/18 00:25:27;;;;;;;;;;;;;;;21.91;51.53;102289.84;2083885;28;859;-63
2021/09/18 00:26:27;;;;;;;;;;;;;;;21.92;52.22;102292.53;2083841;28;976;-63
2021/09/18 00:27:27;;;;;;;;;;;;;;;21.85;51.64;102298.94;2083803;28;1040;-63
2021/09/18 00:28:28;;;;;;;;;;;;;;;21.85;51.80;102298.94;2083818;28;780;-64
2021/09/18 00:29:28;;;;;;;;;;;;;;;21.84;51.95;102299.88;2083790;28;764;-63
2021/09/18 00:30:28;;;;;;;;;;;;;;;21.91;51.12;102300.66;2083631;28;981;-63
2021/09/18 00:31:28;;;;;;;;;;;;;;;21.96;50.98;102297.88;2083798;28;669;-64
2021/09/18 00:32:28;;;;;;;;;;;;;;;21.90;52.19;102302.47;2083582;28;807;-63
2021/09/18 00:33:28;;;;;;;;;;;;;;;21.90;51.03;102307.88;2083346;28;1300;-63
2021/09/18 00:34:28;;;;;;;;;;;;;;;21.87;51.96;102305.22;2083391;28;958;-64
2021/09/18 00:35:29;;;;;;;;;;;;;;;21.79;52.54;102304.44;2083304;28;756;-63
2021/09/18 00:36:29;;;;;;;;;;;;;;;21.91;52.97;102319.53;2083085;28;799;-64
2021/09/18 00:37:29;;;;;;;;;;;;;;;21.82;52.16;102308.88;2083035;28;776;-63
2021/09/18 00:38:29;;;;;;;;;;;;;;;21.84;52.73;102305.25;2083199;28;1971;-63
2021/09/18 00:39:29;;;;;;;;;;;;;;;21.79;53.05;102317.00;2083177;28;1306;-63
2021/09/18 00:40:30;;;;;;;;;;;;;;;21.80;52.09;102316.09;2083338;28;866;-63
2021/09/18 00:41:30;;;;;;;;;;;;;;;21.77;53.15;102312.56;2083391;28;779;-64
2021/09/18 00:42:30;;;;;;;;;;;;;;;21.77;52.11;102317.97;2083130;28;1017;-63
2021/09/18 00:43:30;;;;;;;;;;;;;;;21.81;52.61;102315.19;2083354;28;1033;-64
2021/09/18 00:44:30;;;;;;;;;;;;;;;21.76;52.74;102312.56;2084236;28;993;-63
2021/09/18 00:45:31;;;;;;;;;;;;;;;21.80;51.80;102316.09;2083873;28;1029;-63
2021/09/18 00:46:31;;;;;;;;;;;;;;;21.74;52.81;102314.41;2083292;28;985;-64
2021/09/18 00:47:31;;;;;;;;;;;;;;;21.76;52.88;102313.47;2083261;28;867;-63
2021/09/18 00:48:31;;;;;;;;;;;;;;;21.79;53.46;102311.63;2083310;28;1033;-63
2021/09/18 00:49:32;;;;;;;;;;;;;;;21.80;51.65;102316.09;2083297;28;752;-63
2021/09/18 00:50:32;;;;;;;;;;;;;;;21.79;51.63;102306.22;2083101;28;970;-64
2021/09/18 00:51:32;;;;;;;;;;;;;;;21.82;51.49;102314.28;2083267;28;1000;-63
2021/09/18 00:52:33;;;;;;;;;;;;;;;21.82;51.21;102311.56;2083228;28;969;-63
2021/09/18 00:53:33;;;;;;;;;;;;;;;21.81;52.71;102304.41;2074531;28;1826;-63
2021/09/18 00:54:33;;;;;;;;;;;;;;;21.73;52.45;102304.53;2074561;28;1040;-64
2021/09/18 00:55:34;;;;;;;;;;;;;;;21.64;52.82;102308.28;2082981;28;854;-63
2021/09/18 00:56:34;;;;;;;;;;;;;;;21.73;52.08;102307.22;2083161;28;949;-64
2021/09/18 00:57:35;;;;;;;;;;;;;;;21.74;51.05;102306.31;2083226;28;985;-64
2021/09/18 00:58:35;;;;;;;;;;;;;;;21.76;52.18;102305.41;2083020;28;1886;-64
2021/09/18 00:59:35;;;;;;;;;;;;;;;21.80;51.31;102308.00;2083195;28;1028;-64
2021/09/18 01:00:35;;;;;;;;;;;;;;;21.74;52.38;102307.22;2083281;28;764;-64
2021/09/18 01:01:35;;;;;;;;;;;;;;;21.75;52.88;102310.78;2083208;28;894;-64
2021/09/18 01:02:36;;;;;;;;;;;;;;;21.69;53.16;102306.41;2083220;28;882;-64
2021/09/18 01:03:36;;;;;;;;;;;;;;;21.72;52.54;102305.44;2083108;28;768;-64
2021/09/18 01:04:36;;;;;;;;;;;;;;;21.69;53.03;102306.41;2082722;28;969;-65
2021/09/18 01:05:37;;;;;;;;;;;;;;;21.74;52.49;102309.91;2083165;28;1133;-65
2021/09/18 01:06:37;;;;;;;;;;;;;;;21.69;53.44;102314.50;2083201;28;982;-64
2021/09/18 01:07:38;;;;;;;;;;;;;;;21.70;51.82;102307.28;2083217;28;871;-65
2021/09/18 01:08:40;;;;;;;;;;;;;;;21.82;51.20;102304.41;2082987;28;969;-65
2021/09/18 01:09:41;;;;;;;;;;;;;;;21.75;51.33;102314.41;2084634;28;1334;-66
2021/09/18 01:10:41;;;;;;;;;;;;;;;21.81;51.63;102316.09;2088773;28;2253;-65
2021/09/18 01:11:41;;;;;;;;;;;;;;;21.77;51.55;102317.06;2091315;28;774;-65
2021/09/18 01:13:18;;;;;;;;;;;;;;;21.76;51.56;102318.88;2091399;28;938;-66
2021/09/18 01:14:18;;;;;;;;;;;;;;;21.75;52.89;102317.09;2065530;28;1196;-65
2021/09/18 01:15:18;;;;;;;;;;;;;;;21.76;50.90;102323.38;2065429;28;986;-64
2021/09/18 01:16:19;;;;;;;;;;;;;;;21.76;52.44;102316.19;2065895;28;927;-64
2021/09/18 01:17:19;;;;;;;;;;;;;;;21.72;51.60;102318.94;2065848;28;813;-64
2021/09/18 01:18:20;;;;;;;;;;;;;;;21.75;50.92;102318.88;2065851;28;1898;-65
2021/09/18 01:19:20;;;;;;;;;;;;;;;21.75;51.99;102316.19;2065963;28;732;-63
2021/09/18 01:20:20;;;;;;;;;;;;;;;21.77;51.07;102320.66;2065489;28;974;-64
2021/09/18 01:21:20;;;;;;;;;;;;;;;21.73;52.29;102313.53;2065987;28;768;-66
2021/09/18 01:22:23;;;;;;;;;;;;;;;21.74;53.03;102322.50;2065765;28;921;-65
2021/09/18 01:23:23;;;;;;;;;;;;;;;21.72;51.73;102321.63;2065826;28;1367;-65
2021/09/18 01:24:23;;;;;;;;;;;;;;;21.80;51.49;102319.72;2065949;28;772;-65
2021/09/18 01:25:27;;;;;;;;;;;;;;;21.75;52.44;102326.97;2065915;28;1029;-65
2021/09/18 01:26:36;;;;;;;;;;;;;;;21.81;52.74;102321.50;2065822;28;1391;-65
2021/09/18 01:27:36;;;;;;;;;;;;;;;21.82;51.72;102320.56;2065756;28;808;-64
2021/09/18 01:28:39;;;;;;;;;;;;;;;21.83;51.11;102322.34;2065832;28;970;-64
2021/09/18 01:29:39;;;;;;;;;;;;;;;21.80;51.79;102325.09;2065848;28;891;-64
2021/09/18 01:30:39;;;;;;;;;;;;;;;21.76;52.61;102328.75;2065835;28;966;-65
2021/09/18 01:31:40;;;;;;;;;;;;;;;21.80;51.03;102329.59;2066058;28;2228;-63
2021/09/18 01:32:41;;;;;;;;;;;;;;;21.79;52.00;102325.09;2067150;28;843;-65
2021/09/18 01:33:41;;;;;;;;;;;;;;;21.74;51.25;102326.09;2030046;28;1035035;-66
2021/09/18 01:34:41;;;;;;;;;;;;;;;21.76;52.71;102326.06;2066208;28;1005;-65
2021/09/18 01:35:42;;;;;;;;;;;;;;;21.76;50.71;102326.97;2066102;28;1040;-64
2021/09/18 01:36:42;;;;;;;;;;;;;;;21.74;52.08;102326.09;2066222;28;974;-64
2021/09/18 01:37:46;;;;;;;;;;;;;;;21.73;51.73;102326.09;2065962;28;812;-65
2021/09/18 01:38:49;;;;;;;;;;;;;;;21.75;51.71;102327.88;2065900;28;2350;-65
2021/09/18 01:39:49;;;;;;;;;;;;;;;21.80;51.24;102327.81;2066120;28;1189;-64
2021/09/18 01:40:49;;;;;;;;;;;;;;;21.85;51.69;102328.63;2066166;28;867;-64
2021/09/18 01:41:49;;;;;;;;;;;;;;;21.76;51.78;102328.75;2066138;28;1029;-65
2021/09/18 01:42:50;;;;;;;;;;;;;;;21.76;51.70;102326.97;2066023;28;929;-64
2021/09/18 01:43:50;;;;;;;;;;;;;;;21.75;51.50;102332.38;2066003;28;994;-64
2021/09/18 01:44:50;;;;;;;;;;;;;;;21.76;51.81;102324.28;2065703;28;828;-65
2021/09/18 01:45:51;;;;;;;;;;;;;;;21.73;51.06;102328.81;2065643;28;994;-65
2021/09/18 01:46:51;;;;;;;;;;;;;;;21.72;51.53;102332.41;2065860;28;974;-65
2021/09/18 01:47:52;;;;;;;;;;;;;;;21.72;52.62;102333.31;2066227;28;1006;-65
2021/09/18 01:48:53;;;;;;;;;;;;;;;21.72;51.56;102330.63;2067889;28;959;-64
2021/09/18 01:49:53;;;;;;;;;;;;;;;21.73;51.46;102332.41;2082643;28;791;-64
2021/09/18 01:50:56;;;;;;;;;;;;;;;21.73;51.08;102328.81;2091458;28;1064;-64
2021/09/18 01:52:04;;;;;;;;;;;;;;;21.70;52.48;102328.84;2091415;28;919;-65
2021/09/18 01:53:07;;;;;;;;;;;;;;;21.68;52.06;102334.28;2091577;28;878;-64
2021/09/18 01:54:07;;;;;;;;;;;;;;;21.67;51.43;102323.50;2091383;28;881;-64
2021/09/18 01:55:07;;;;;;;;;;;;;;;21.67;52.23;102335.19;2092671;28;822;-64
2021/09/18 01:56:07;;;;;;;;;;;;;;;21.69;52.43;102335.16;2091294;28;980;-65
2021/09/18 01:57:07;;;;;;;;;;;;;;;21.72;51.80;102330.63;2091352;28;841;-64
2021/09/18 01:58:08;;;;;;;;;;;;;;;21.67;52.41;102340.59;2091359;28;1890;-64
2021/09/18 01:59:08;;;;;;;;;;;;;;;21.70;51.13;102336.94;2091436;28;882;-64
2021/09/18 02:00:09;;;;;;;;;;;;;;;21.69;51.75;102330.66;2091426;28;767;-64
2021/09/18 02:01:09;;;;;;;;;;;;;;;21.71;51.83;102330.63;2091453;28;848;-65
2021/09/18 02:02:10;;;;;;;;;;;;;;;21.71;52.52;102336.03;2091388;28;886;-64
2021/09/18 02:03:10;;;;;;;;;;;;;;;21.72;52.26;102327.94;2091479;28;834;-64
2021/09/18 02:04:10;;;;;;;;;;;;;;;21.76;52.57;102335.06;2091341;28;917;-64
2021/09/18 02:05:11;;;;;;;;;;;;;;;21.73;51.64;102327.00;2091195;28;878;-64
2021/09/18 02:06:15;;;;;;;;;;;;;;;21.72;51.77;102336.03;2089073;28;1315;-64
2021/09/18 02:07:15;;;;;;;;;;;;;;;21.72;51.09;102327.03;2083112;28;819;-64
2021/09/18 02:08:15;;;;;;;;;;;;;;;21.69;51.55;102336.06;2083159;28;1008;-64
2021/09/18 02:09:16;;;;;;;;;;;;;;;21.67;51.78;102332.50;2083268;28;977;-64
2021/09/18 02:10:17;;;;;;;;;;;;;;;21.69;51.83;102327.06;2082895;28;784;-64
2021/09/18 02:11:17;;;;;;;;;;;;;;;21.71;51.86;102328.84;2083197;28;846;-64
2021/09/18 02:12:17;;;;;;;;;;;;;;;21.66;51.27;102328.00;2083192;28;843;-65
2021/09/18 02:13:18;;;;;;;;;;;;;;;21.66;53.15;102328.00;2082877;28;976;-64
2021/09/18 02:14:18;;;;;;;;;;;;;;;21.69;51.13;102325.28;2083199;28;869;-65
2021/09/18 02:15:20;;;;;;;;;;;;;;;21.73;50.62;102328.81;2083195;28;1017;-64
2021/09/18 02:16:20;;;;;;;;;;;;;;;21.68;52.73;102331.59;2082992;28;890;-64
2021/09/18 02:17:20;;;;;;;;;;;;;;;21.68;51.50;102331.59;2084310;28;848;-64
2021/09/18 02:18:20;;;;;;;;;;;;;;;21.67;52.17;102328.88;2084804;28;1898;-65
2021/09/18 02:19:23;;;;;;;;;;;;;;;21.64;51.57;102324.44;2085739;28;756;-64
2021/09/18 02:20:24;;;;;;;;;;;;;;;21.65;52.17;102328.03;2084874;28;1036;-64
2021/09/18 02:21:24;;;;;;;;;;;;;;;21.58;52.84;102329.91;2084580;28;992;-64
2021/09/18 02:22:24;;;;;;;;;;;;;;;21.60;51.82;102333.47;2084842;28;854;-64
2021/09/18 02:23:24;;;;;;;;;;;;;;;21.61;52.61;102322.63;2083954;28;1477;-64
2021/09/18 02:24:24;;;;;;;;;;;;;;;21.65;52.04;102328.03;2084249;28;972;-64
2021/09/18 02:25:25;;;;;;;;;;;;;;;21.60;53.06;102331.63;2092937;28;782;-64
2021/09/18 02:26:26;;;;;;;;;;;;;;;21.59;52.50;102327.16;2093016;28;906;-64
2021/09/18 02:27:26;;;;;;;;;;;;;;;21.57;51.71;102330.81;2093037;28;762;-64
2021/09/18 02:28:26;;;;;;;;;;;;;;;21.52;53.15;102329.97;2093200;28;807;-64
2021/09/18 02:29:26;;;;;;;;;;;;;;;21.53;51.56;102327.25;2092833;28;866;-65
2021/09/18 02:30:28;;;;;;;;;;;;;;;21.58;52.33;102324.50;2093114;28;689;-64
2021/09/18 02:31:28;;;;;;;;;;;;;;;21.64;52.32;102327.16;2092886;28;861;-63
2021/09/18 02:32:29;;;;;;;;;;;;;;;21.60;51.29;102328.94;2092821;28;973;-64
2021/09/18 02:33:29;;;;;;;;;;;;;;;21.58;52.82;102329.91;2092848;28;1291;-64
2021/09/18 02:34:29;;;;;;;;;;;;;;;21.59;51.32;102327.16;2092961;28;980;-64
2021/09/18 02:35:30;;;;;;;;;;;;;;;21.55;53.28;102324.53;2092991;28;1031;-64
2021/09/18 02:36:30;;;;;;;;;;;;;;;21.55;51.62;102324.53;2092962;28;854;-64
2021/09/18 02:37:30;;;;;;;;;;;;;;;21.57;52.87;102331.69;2092971;28;823;-64
2021/09/18 02:38:30;;;;;;;;;;;;;;;21.52;52.46;102325.47;2092880;28;1918;-64
2021/09/18 02:39:30;;;;;;;;;;;;;;;21.53;51.81;102337.16;2092850;28;790;-64
2021/09/18 02:40:31;;;;;;;;;;;;;;;21.59;52.28;102337.06;2092701;28;850;-64
2021/09/18 02:41:31;;;;;;;;;;;;;;;21.60;51.51;102330.75;2094109;28;924;-64
2021/09/18 02:42:31;;;;;;;;;;;;;;;21.61;51.27;102337.94;2092433;28;1043;-64
2021/09/18 02:43:32;;;;;;;;;;;;;;;21.61;51.34;102330.72;2092860;28;988;-64
2021/09/18 02:44:32;;;;;;;;;;;;;;;21.64;52.20;102329.84;2092877;28;854;-64
2021/09/18 02:45:33;;;;;;;;;;;;;;;21.60;52.04;102330.75;2092660;28;869;-63
2021/09/18 02:46:33;;;;;;;;;;;;;;;21.60;51.67;102325.38;2092858;28;874;-64
2021/09/18 02:47:33;;;;;;;;;;;;;;;21.62;51.79;102334.38;2092906;28;846;-64
2021/09/18 02:48:34;;;;;;;;;;;;;;;21.57;52.05;102338.91;2092483;28;993;-64
2021/09/18 02:49:34;;;;;;;;;;;;;;;21.61;52.26;102335.25;2092812;28;822;-64
2021/09/18 02:50:34;;;;;;;;;;;;;;;21.58;52.37;102340.69;2092832;28;866;-65
2021/09/18 02:51:34;;;;;;;;;;;;;;;21.51;52.28;102336.28;2100485;28;1159;-64
2021/09/18 02:52:35;;;;;;;;;;;;;;;21.52;52.59;102328.16;2100534;28;1020;-64
2021/09/18 02:53:35;;;;;;;;;;;;;;;21.56;51.87;102334.41;2092769;28;886;-64
2021/09/18 02:54:35;;;;;;;;;;;;;;;21.54;51.86;102333.53;2092697;28;980;-64
2021/09/18 02:55:35;;;;;;;;;;;;;;;21.55;52.50;102338.91;2092851;28;767;-64
2021/09/18 02:56:35;;;;;;;;;;;;;;;21.56;51.54;102332.59;2092666;28;959;-64
2021/09/18 02:57:35;;;;;;;;;;;;;;;21.58;51.70;102337.97;2092802;28;964;-64
2021/09/18 02:58:36;;;;;;;;;;;;;;;21.56;52.26;102342.50;2092783;28;1879;-64
2021/09/18 02:59:36;;;;;;;;;;;;;;;21.59;51.32;102329.84;2092653;28;793;-64
2021/09/18 03:00:36;;;;;;;;;;;;;;;21.62;51.82;102331.66;2092897;28;716;-64
2021/09/18 03:01:36;;;;;;;;;;;;;;;21.57;51.83;102331.69;2092661;28;731;-64
2021/09/18 03:02:36;;;;;;;;;;;;;;;21.60;53.03;102338.84;2092735;28;996;-64
2021/09/18 03:03:36;;;;;;;;;;;;;;;21.59;51.90;102334.38;2092739;28;694;-64
2021/09/18 03:04:37;;;;;;;;;;;;;;;21.58;52.96;102333.47;2092589;28;858;-64
2021/09/18 03:05:38;;;;;;;;;;;;;;;21.57;50.80;102325.41;2093584;28;1097;-64
2021/09/18 03:06:38;;;;;;;;;;;;;;;21.54;52.95;102330.84;2094439;28;818;-64
2021/09/18 03:07:38;;;;;;;;;;;;;;;21.56;52.60;102331.72;2092603;28;847;-64
2021/09/18 03:08:38;;;;;;;;;;;;;;;21.60;51.05;102333.47;2092682;28;913;-64
2021/09/18 03:09:38;;;;;;;;;;;;;;;21.59;50.83;102332.56;2092675;28;810;-64
2021/09/18 03:10:38;;;;;;;;;;;;;;;21.61;51.31;102336.13;2092570;28;984;-63
2021/09/18 03:11:39;;;;;;;;;;;;;;;21.57;52.81;102337.06;2092170;28;1013;-65
2021/09/18 03:12:39;;;;;;;;;;;;;;;21.54;52.09;102323.63;2092406;28;836;-64
2021/09/18 03:13:39;;;;;;;;;;;;;;;21.58;51.15;102327.19;2092232;28;996;-62
2021/09/18 03:14:39;;;;;;;;;;;;;;;21.58;51.85;102329.91;2092546;28;876;-64
2021/09/18 03:15:40;;;;;;;;;;;;;;;21.50;52.43;102324.59;2092367;28;771;-64
2021/09/18 03:16:40;;;;;;;;;;;;;;;21.55;52.04;102328.13;2092565;28;996;-63
2021/09/18 03:17:40;;;;;;;;;;;;;;;21.50;53.87;102332.69;2092630;28;886;-63
2021/09/18 03:18:40;;;;;;;;;;;;;;;21.57;51.50;102338.91;2092512;28;1945;-63
2021/09/18 03:19:41;;;;;;;;;;;;;;;21.62;51.34;102332.53;2092657;28;984;-63
2021/09/18 03:20:41;;;;;;;;;;;;;;;21.61;52.08;102335.25;2092545;28;869;-63
2021/09/18 03:21:41;;;;;;;;;;;;;;;21.62;52.13;102342.47;2092303;28;976;-63
2021/09/18 03:22:41;;;;;;;;;;;;;;;21.58;52.30;102338.84;2092558;28;1115;-63
2021/09/18 03:23:41;;;;;;;;;;;;;;;21.56;52.54;102339.81;2092242;28;1249;-64
2021/09/18 03:24:42;;;;;;;;;;;;;;;21.58;52.85;102333.47;2092626;28;824;-63
2021/09/18 03:25:43;;;;;;;;;;;;;;;21.59;52.83;102337.94;2092537;28;969;-63
2021/09/18 03:26:44;;;;;;;;;;;;;;;21.58;53.41;102332.59;2092536;28;784;-63
2021/09/18 03:27:44;;;;;;;;;;;;;;;21.56;55.32;102334.41;2092216;28;771;-63
2021/09/18 03:28:44;;;;;;;;;;;;;;;21.45;55.47;102335.44;2092378;28;973;-63
2021/09/18 03:29:44;;;;;;;;;;;;;;;21.47;54.50;102344.41;2092295;28;1004;-63
2021/09/18 03:30:44;;;;;;;;;;;;;;;21.50;54.06;102337.19;2092532;28;1048;-63
2021/09/18 03:31:44;;;;;;;;;;;;;;;21.47;55.27;102339.00;2083664;28;866;-63
2021/09/18 03:32:44;;;;;;;;;;;;;;;21.45;55.57;102332.75;2084313;28;867;-63
2021/09/18 03:33:45;;;;;;;;;;;;;;;21.42;55.71;102340.88;2092132;28;1158;-63
2021/09/18 03:34:45;;;;;;;;;;;;;;;21.41;55.35;102335.53;2092499;28;982;-63
2021/09/18 03:35:46;;;;;;;;;;;;;;;21.46;54.68;102336.34;2092448;28;814;-63
2021/09/18 03:36:47;;;;;;;;;;;;;;;21.44;54.17;102338.19;2092238;28;839;-63
2021/09/18 03:37:47;;;;;;;;;;;;;;;21.45;54.68;102338.16;2092411;28;1293;-63
2021/09/18 03:38:47;;;;;;;;;;;;;;;21.43;54.03;102331.88;2092384;28;1977;-63
2021/09/18 03:39:47;;;;;;;;;;;;;;;21.37;54.43;102336.47;2092191;28;1191;-63
2021/09/18 03:40:47;;;;;;;;;;;;;;;21.36;54.94;102332.88;2091935;28;779;-64
2021/09/18 03:41:47;;;;;;;;;;;;;;;21.36;54.44;102334.69;2092181;28;855;-63
2021/09/18 03:42:47;;;;;;;;;;;;;;;21.27;53.92;102333.91;2092403;28;973;-63
2021/09/18 03:43:48;;;;;;;;;;;;;;;21.22;53.11;102338.44;2092406;28;827;-63
2021/09/18 03:44:48;;;;;;;;;;;;;;;21.22;53.17;102337.53;2092128;28;879;-63
2021/09/18 03:45:51;;;;;;;;;;;;;;;21.26;52.65;102339.28;2092356;28;815;-63
2021/09/18 03:46:51;;;;;;;;;;;;;;;21.28;51.44;102337.47;2092392;28;815;-63
2021/09/18 03:47:51;;;;;;;;;;;;;;;21.32;52.04;102342.81;2092075;28;811;-63
2021/09/18 03:48:51;;;;;;;;;;;;;;;21.36;52.04;102342.78;2092257;28;1397;-63
2021/09/18 03:49:54;;;;;;;;;;;;;;;21.29;53.23;102337.47;2092357;28;997;-63
2021/09/18 03:50:54;;;;;;;;;;;;;;;21.32;52.15;102341.91;2092197;28;827;-63
2021/09/18 03:51:54;;;;;;;;;;;;;;;21.38;52.51;102338.25;2092383;28;1324;-63
2021/09/18 03:52:54;;;;;;;;;;;;;;;21.38;51.87;102336.44;2092332;28;754;-63
2021/09/18 03:53:54;;;;;;;;;;;;;;;21.37;52.92;102337.34;2092270;28;866;-63
2021/09/18 03:54:55;;;;;;;;;;;;;;;21.48;51.45;102340.81;2092324;28;768;-63
2021/09/18 03:55:55;;;;;;;;;;;;;;;21.58;51.07;102348.78;2092342;28;807;-63
2021/09/18 03:56:55;;;;;;;;;;;;;;;21.69;50.66;102343.25;2093351;28;839;-63
2021/09/18 03:57:56;;;;;;;;;;;;;;;21.61;51.05;102346.03;2092295;28;831;-62
2021/09/18 03:58:56;;;;;;;;;;;;;;;21.57;52.66;102346.97;2092062;28;1957;-63
2021/09/18 03:59:56;;;;;;;;;;;;;;;21.44;53.13;102344.44;2092316;28;918;-63
2021/09/18 04:00:56;;;;;;;;;;;;;;;21.62;51.66;102347.84;2092261;28;1333;-63
2021/09/18 04:01:56;;;;;;;;;;;;;;;21.53;52.12;102350.63;2091887;28;985;-63
2021/09/18 04:02:57;;;;;;;;;;;;;;;21.65;50.52;102350.50;2092283;28;790;-63
2021/09/18 04:03:59;;;;;;;;;;;;;;;22.24;49.86;102352.31;2092280;28;773;-63
2021/09/18 04:04:59;;;;;;;;;;;;;;;22.47;50.46;102354.63;2092237;28;804;-63
2021/09/18 04:05:59;;;;;;;;;;;;;;;22.72;48.73;102347.88;2092267;28;1228;-63
2021/09/18 04:06:59;;;;;;;;;;;;;;;22.83;48.61;102347.66;2092049;28;1044;-63
2021/09/18 04:08:03;;;;;;;;;;;;;;;22.83;47.59;102348.59;2092138;28;825;-63
2021/09/18 04:09:04;;;;;;;;;;;;;;;22.94;47.28;102343.88;2092210;28;997;-63
2021/09/18 04:10:04;;;;;;;;;;;;;;;22.94;48.08;102343.88;2092089;28;779;-63
2021/09/18 04:11:04;;;;;;;;;;;;;;;23.09;46.88;102347.16;2091796;28;837;-62
2021/09/18 04:12:04;;;;;;;;;;;;;;;23.15;47.12;102340.75;2091212;28;988;-63
2021/09/18 04:13:05;;;;;;;;;;;;;;;23.22;46.60;102343.31;2091595;28;949;-64
2021/09/18 04:14:05;;;;;;;;;;;;;;;23.17;47.36;102339.78;2092035;28;988;-63
2021/09/18 04:15:05;;;;;;;;;;;;;;;23.26;47.12;102340.53;2092025;28;846;-63
2021/09/18 04:16:06;;;;;;;;;;;;;;;23.35;46.76;102343.06;2092110;28;1107;-63
2021/09/18 04:17:06;;;;;;;;;;;;;;;23.41;47.45;102347.44;2093626;28;977;-63
2021/09/18 04:18:06;;;;;;;;;;;;;;;23.51;47.56;102349.00;2091956;28;1952;-63
2021/09/18 04:19:06;;;;;;;;;;;;;;;23.50;46.73;102349.94;2092097;28;767;-63
2021/09/18 04:20:07;;;;;;;;;;;;;;;23.51;47.10;102346.31;2092029;28;771;-63
2021/09/18 04:21:07;;;;;;;;;;;;;;;23.48;47.47;102355.41;2091898;28;846;-63
2021/09/18 04:22:08;;;;;;;;;;;;;;;23.63;46.32;102350.53;2092133;28;977;-62
2021/09/18 04:23:08;;;;;;;;;;;;;;;23.61;47.35;102353.28;2089763;28;1471;-63
2021/09/18 04:24:08;;;;;;;;;;;;;;;23.59;47.03;102347.03;2083822;28;852;-63
2021/09/18 04:25:08;;;;;;;;;;;;;;;23.66;48.85;102345.06;2083833;28;1005;-63
2021/09/18 04:26:09;;;;;;;;;;;;;;;23.72;48.77;102353.03;2083811;28;870;-63
2021/09/18 04:27:09;;;;;;;;;;;;;;;23.71;46.65;102353.97;2083825;28;862;-64
2021/09/18 04:28:09;;;;;;;;;;;;;;;23.72;46.36;102363.00;2083601;28;843;-63
2021/09/18 04:29:09;;;;;;;;;;;;;;;23.83;48.21;102361.81;2083802;28;772;-63
2021/09/18 04:30:10;;;;;;;;;;;;;;;23.77;48.00;102364.66;2083802;28;776;-63
2021/09/18 04:31:10;;;;;;;;;;;;;;;23.83;47.30;102361.81;2083655;28;943;-63
2021/09/18 04:32:10;;;;;;;;;;;;;;;23.90;47.61;102364.38;2083750;28;981;-63
2021/09/18 04:33:10;;;;;;;;;;;;;;;23.79;47.95;102370.03;2083833;28;1008;-63
2021/09/18 04:34:10;;;;;;;;;;;;;;;23.82;47.92;102369.97;2083246;28;1098;-63
2021/09/18 04:35:10;;;;;;;;;;;;;;;23.79;47.55;102370.03;2083743;28;1061;-63
2021/09/18 04:36:10;;;;;;;;;;;;;;;23.83;48.04;102369.91;2083796;28;725;-63
2021/09/18 04:37:11;;;;;;;;;;;;;;;23.94;47.50;102369.66;2083811;28;926;-63
2021/09/18 04:38:11;;;;;;;;;;;;;;;23.94;47.95;102368.78;2083721;28;1973;-63
2021/09/18 04:39:13;;;;;;;;;;;;;;;23.97;47.73;102371.41;2083229;28;808;-63
2021/09/18 04:40:13;;;;;;;;;;;;;;;23.90;49.19;102372.50;2083694;28;811;-63
2021/09/18 04:41:13;;;;;;;;;;;;;;;23.90;48.28;102378.78;2083448;28;855;-63
2021/09/18 04:42:14;;;;;;;;;;;;;;;23.93;47.04;102376.00;2083623;28;969;-63
2021/09/18 04:43:14;;;;;;;;;;;;;;;24.00;49.32;102376.78;2083704;28;964;-63
2021/09/18 04:44:14;;;;;;;;;;;;;;;23.95;47.95;102376.84;2083442;28;1020;-63
2021/09/18 04:45:14;;;;;;;;;;;;;;;24.00;50.08;102376.78;2083689;28;973;-63
2021/09/18 04:46:14;;;;;;;;;;;;;;;23.98;48.79;102384.94;2083688;28;819;-63
2021/09/18 04:47:14;;;;;;;;;;;;;;;24.00;48.41;102378.59;2083629;28;961;-63
2021/09/18 04:48:15;;;;;;;;;;;;;;;24.04;48.29;102381.22;2083738;28;1231;-63
2021/09/18 04:49:15;;;;;;;;;;;;;;;24.05;48.54;102382.09;2083520;28;1040;-63
2021/09/18 04:50:15;;;;;;;;;;;;;;;24.09;49.52;102379.28;2083586;28;823;-63
2021/09/18 04:51:15;;;;;;;;;;;;;;;24.10;47.80;102383.78;2083623;28;984;-63
2021/09/18 04:52:15;;;;;;;;;;;;;;;24.09;49.62;102379.28;2083526;28;965;-63
2021/09/18 04:53:15;;;;;;;;;;;;;;;24.11;49.74;102379.22;2083634;28;1028;-63
2021/09/18 04:54:16;;;;;;;;;;;;;;;24.10;49.23;102381.06;2083617;28;756;-63
2021/09/18 04:55:16;;;;;;;;;;;;;;;24.13;48.26;102372.88;2083564;28;1017;-63
2021/09/18 04:56:16;;;;;;;;;;;;;;;24.06;49.63;102379.34;2083606;28;822;-63
2021/09/18 04:57:16;;;;;;;;;;;;;;;23.99;49.09;102385.84;2083572;28;855;-63
2021/09/18 04:58:16;;;;;;;;;;;;;;;24.02;50.53;102382.16;2083476;28;1886;-63
2021/09/18 04:59:16;;;;;;;;;;;;;;;24.02;49.52;102376.75;2083626;28;977;-63
2021/09/18 05:00:17;;;;;;;;;;;;;;;24.00;48.05;102382.22;2083541;28;1061;-63
2021/09/18 05:01:17;;;;;;;;;;;;;;;24.04;47.92;102385.72;2083601;28;795;-63
2021/09/18 05:02:17;;;;;;;;;;;;;;;24.05;48.36;102377.56;2083694;28;872;-63
2021/09/18 05:03:18;;;;;;;;;;;;;;;24.05;49.23;102388.41;2074815;28;1623;-63
2021/09/18 05:04:18;;;;;;;;;;;;;;;24.02;49.50;102388.47;2074836;28;788;-63
2021/09/18 05:05:18;;;;;;;;;;;;;;;24.11;50.42;102381.94;2083279;28;1045;-63
2021/09/18 05:06:18;;;;;;;;;;;;;;;24.09;47.85;102390.13;2083468;28;793;-63
2021/09/18 05:07:19;;;;;;;;;;;;;;;24.18;48.71;102388.06;2083284;28;1057;-63
2021/09/18 05:08:19;;;;;;;;;;;;;;;24.19;48.07;102382.66;2083099;28;830;-63
2021/09/18 05:09:19;;;;;;;;;;;;;;;24.18;49.42;102388.06;2083291;28;973;-63
2021/09/18 05:10:19;;;;;;;;;;;;;;;24.15;49.22;102388.16;2083563;28;1490;-64
2021/09/18 05:11:19;;;;;;;;;;;;;;;24.21;48.08;102386.22;2083510;28;855;-63
2021/09/18 05:12:19;;;;;;;;;;;;;;;24.27;48.83;102393.28;2083487;28;977;-63
2021/09/18 05:13:19;;;;;;;;;;;;;;;24.25;49.96;102384.28;2083145;28;927;-63
2021/09/18 05:14:20;;;;;;;;;;;;;;;24.26;47.68;102386.97;2083484;28;851;-63
2021/09/18 05:15:20;;;;;;;;;;;;;;;24.25;46.63;102390.63;2083410;28;1040;-63
2021/09/18 05:16:20;;;;;;;;;;;;;;;24.25;47.94;102392.41;2083316;28;768;-63
2021/09/18 05:17:20;;;;;;;;;;;;;;;24.14;48.81;102384.56;2083478;28;799;-63
2021/09/18 05:18:20;;;;;;;;;;;;;;;24.20;48.21;102386.22;2083409;28;1882;-63